sensor_id;sensor_type;location;lat;lon;timestamp;temperature;humidity
59556;DHT22;45374;52.746;6.304;2022-07-29T00:01:20;14.80;99.90
59556;DHT22;45374;52.746;6.304;2022-07-29T00:03:46;14.80;99.90
59556;DHT22;45374;52.746;6.304;2022-07-29T00:06:12;14.80;99.90
59556;DHT22;45374;52.746;6.304;2022-07-29T00:08:37;14.70;99.90
59556;DHT22;45374;52.746;6.304;2022-07-29T00:11:03;14.70;99.90
59556;DHT22;45374;52.746;6.304;2022-07-29T00:13:29;14.70;99.90
59556;DHT22;45374;52.746;6.304;2022-07-29T00:15:55;14.70;99.90
59556;DHT22;45374;52.746;6.304;2022-07-29T00:18:20;14.70;99.90
59556;DHT22;45374;52.746;6.304;2022-07-29T00:20:46;14.70;99.90
59556;DHT22;45374;52.746;6.304;2022-07-29T00:23:11;14.70;99.90
59556;DHT22;45374;52.746;6.304;2022-07-29T00:25:37;14.60;99.90
59556;DHT22;45374;52.746;6.304;2022-07-29T00:28:03;14.60;99.90
59556;DHT22;45374;52.746;6.304;2022-07-29T00:30:28;14.60;99.90
59556;DHT22;45374;52.746;6.304;2022-07-29T00:32:54;14.60;99.90
59556;DHT22;45374;52.746;6.304;2022-07-29T00:35:19;14.60;99.90
59556;DHT22;45374;52.746;6.304;2022-07-29T00:38:03;14.50;99.90
59556;DHT22;45374;52.746;6.304;2022-07-29T00:40:29;14.60;99.90
59556;DHT22;45374;52.746;6.304;2022-07-29T00:42:55;14.60;99.90
59556;DHT22;45374;52.746;6.304;2022-07-29T00:45:20;14.60;99.90
59556;DHT22;45374;52.746;6.304;2022-07-29T00:47:47;14.60;99.90
59556;DHT22;45374;52.746;6.304;2022-07-29T00:50:13;14.60;99.90
59556;DHT22;45374;52.746;6.304;2022-07-29T00:52:40;14.60;99.90
59556;DHT22;45374;52.746;6.304;2022-07-29T00:55:11;14.50;99.90
59556;DHT22;45374;52.746;6.304;2022-07-29T00:57:38;14.50;99.90
59556;DHT22;45374;52.746;6.304;2022-07-29T01:00:07;14.60;99.90
59556;DHT22;45374;52.746;6.304;2022-07-29T01:02:33;14.50;99.90
59556;DHT22;45374;52.746;6.304;2022-07-29T01:04:59;14.50;99.90
59556;DHT22;45374;52.746;6.304;2022-07-29T01:07:25;14.60;99.90
59556;DHT22;45374;52.746;6.304;2022-07-29T01:09:52;14.60;99.90
59556;DHT22;45374;52.746;6.304;2022-07-29T01:12:25;14.50;99.90
59556;DHT22;45374;52.746;6.304;2022-07-29T01:14:52;14.60;99.90
59556;DHT22;45374;52.746;6.304;2022-07-29T01:17:29;14.60;99.90
59556;DHT22;45374;52.746;6.304;2022-07-29T01:23:11;14.60;99.90
59556;DHT22;45374;52.746;6.304;2022-07-29T01:26:04;14.60;99.90
59556;DHT22;45374;52.746;6.304;2022-07-29T01:35:35;14.60;99.90
59556;DHT22;45374;52.746;6.304;2022-07-29T01:37:47;14.60;99.90
59556;DHT22;45374;52.746;6.304;2022-07-29T01:43:26;14.60;99.90
59556;DHT22;45374;52.746;6.304;2022-07-29T01:46:05;14.70;99.90
59556;DHT22;45374;52.746;6.304;2022-07-29T01:48:37;14.60;99.90
59556;DHT22;45374;52.746;6.304;2022-07-29T01:51:04;14.60;99.90
59556;DHT22;45374;52.746;6.304;2022-07-29T01:53:35;14.60;99.90
59556;DHT22;45374;52.746;6.304;2022-07-29T01:56:02;14.60;99.90
59556;DHT22;45374;52.746;6.304;2022-07-29T01:58:29;14.60;99.90
59556;DHT22;45374;52.746;6.304;2022-07-29T02:00:58;14.60;99.90
59556;DHT22;45374;52.746;6.304;2022-07-29T02:03:25;14.60;99.90
59556;DHT22;45374;52.746;6.304;2022-07-29T02:05:53;14.60;99.90
59556;DHT22;45374;52.746;6.304;2022-07-29T02:08:22;14.60;99.90
59556;DHT22;45374;52.746;6.304;2022-07-29T02:10:49;14.60;99.90
59556;DHT22;45374;52.746;6.304;2022-07-29T02:13:16;14.50;99.90
59556;DHT22;45374;52.746;6.304;2022-07-29T02:15:44;14.60;99.90
59556;DHT22;45374;52.746;6.304;2022-07-29T02:18:18;14.50;99.90
59556;DHT22;45374;52.746;6.304;2022-07-29T02:20:49;14.50;99.90
59556;DHT22;45374;52.746;6.304;2022-07-29T02:23:23;14.50;99.90
59556;DHT22;45374;52.746;6.304;2022-07-29T02:25:52;14.50;99.90
59556;DHT22;45374;52.746;6.304;2022-07-29T02:28:19;14.40;99.90
59556;DHT22;45374;52.746;6.304;2022-07-29T02:30:46;14.50;99.90
59556;DHT22;45374;52.746;6.304;2022-07-29T02:33:14;14.50;99.90
59556;DHT22;45374;52.746;6.304;2022-07-29T02:35:42;14.50;99.90
59556;DHT22;45374;52.746;6.304;2022-07-29T02:38:13;14.50;99.90
59556;DHT22;45374;52.746;6.304;2022-07-29T02:41:01;14.50;99.90
59556;DHT22;45374;52.746;6.304;2022-07-29T02:43:30;14.50;99.90
59556;DHT22;45374;52.746;6.304;2022-07-29T02:45:56;14.50;99.90
59556;DHT22;45374;52.746;6.304;2022-07-29T02:48:30;14.50;99.90
59556;DHT22;45374;52.746;6.304;2022-07-29T02:51:08;14.40;99.90
59556;DHT22;45374;52.746;6.304;2022-07-29T02:53:38;14.40;99.90
59556;DHT22;45374;52.746;6.304;2022-07-29T02:56:14;14.40;99.90
59556;DHT22;45374;52.746;6.304;2022-07-29T02:58:49;14.40;99.90
59556;DHT22;45374;52.746;6.304;2022-07-29T03:01:22;14.40;99.90
59556;DHT22;45374;52.746;6.304;2022-07-29T03:03:49;14.40;99.90
59556;DHT22;45374;52.746;6.304;2022-07-29T03:06:17;14.40;99.90
59556;DHT22;45374;52.746;6.304;2022-07-29T03:08:44;14.30;99.90
59556;DHT22;45374;52.746;6.304;2022-07-29T03:11:10;14.30;99.90
59556;DHT22;45374;52.746;6.304;2022-07-29T03:13:37;14.30;99.90
59556;DHT22;45374;52.746;6.304;2022-07-29T03:16:03;14.30;99.90
59556;DHT22;45374;52.746;6.304;2022-07-29T03:18:30;14.30;99.90
59556;DHT22;45374;52.746;6.304;2022-07-29T03:20:56;14.20;99.90
59556;DHT22;45374;52.746;6.304;2022-07-29T03:23:22;14.20;99.90
59556;DHT22;45374;52.746;6.304;2022-07-29T03:25:52;14.20;99.90
59556;DHT22;45374;52.746;6.304;2022-07-29T03:28:18;14.10;99.90
59556;DHT22;45374;52.746;6.304;2022-07-29T03:30:44;14.10;99.90
59556;DHT22;45374;52.746;6.304;2022-07-29T03:33:09;14.10;99.90
59556;DHT22;45374;52.746;6.304;2022-07-29T03:35:35;14.00;99.90
59556;DHT22;45374;52.746;6.304;2022-07-29T03:38:01;14.00;99.90
59556;DHT22;45374;52.746;6.304;2022-07-29T03:40:35;14.00;99.90
59556;DHT22;45374;52.746;6.304;2022-07-29T03:43:06;14.00;99.90
59556;DHT22;45374;52.746;6.304;2022-07-29T03:45:34;13.90;99.90
59556;DHT22;45374;52.746;6.304;2022-07-29T03:48:05;13.90;99.90
59556;DHT22;45374;52.746;6.304;2022-07-29T03:50:33;13.90;99.90
59556;DHT22;45374;52.746;6.304;2022-07-29T03:53:00;13.90;99.90
59556;DHT22;45374;52.746;6.304;2022-07-29T03:55:26;13.90;99.90
59556;DHT22;45374;52.746;6.304;2022-07-29T03:57:55;13.90;99.90
59556;DHT22;45374;52.746;6.304;2022-07-29T04:00:26;13.80;99.90
59556;DHT22;45374;52.746;6.304;2022-07-29T04:02:52;13.90;99.90
59556;DHT22;45374;52.746;6.304;2022-07-29T04:05:18;13.80;99.90
59556;DHT22;45374;52.746;6.304;2022-07-29T04:07:47;13.80;99.90
59556;DHT22;45374;52.746;6.304;2022-07-29T04:10:14;13.90;99.90
59556;DHT22;45374;52.746;6.304;2022-07-29T04:12:41;13.80;99.90
59556;DHT22;45374;52.746;6.304;2022-07-29T04:15:07;13.80;99.90
59556;DHT22;45374;52.746;6.304;2022-07-29T04:17:33;13.80;99.90
59556;DHT22;45374;52.746;6.304;2022-07-29T04:19:58;13.80;99.90
59556;DHT22;45374;52.746;6.304;2022-07-29T04:22:24;13.80;99.90
59556;DHT22;45374;52.746;6.304;2022-07-29T04:24:50;13.80;99.90
59556;DHT22;45374;52.746;6.304;2022-07-29T04:27:15;13.80;99.90
59556;DHT22;45374;52.746;6.304;2022-07-29T04:29:41;13.80;99.90
59556;DHT22;45374;52.746;6.304;2022-07-29T04:32:06;13.80;99.90
59556;DHT22;45374;52.746;6.304;2022-07-29T04:34:32;13.80;99.90
59556;DHT22;45374;52.746;6.304;2022-07-29T04:36:58;13.80;99.90
59556;DHT22;45374;52.746;6.304;2022-07-29T04:39:24;13.80;99.90
59556;DHT22;45374;52.746;6.304;2022-07-29T04:41:50;13.80;99.90
59556;DHT22;45374;52.746;6.304;2022-07-29T04:44:16;13.70;99.90
59556;DHT22;45374;52.746;6.304;2022-07-29T04:46:41;13.80;99.90
59556;DHT22;45374;52.746;6.304;2022-07-29T04:49:07;13.80;99.90
59556;DHT22;45374;52.746;6.304;2022-07-29T04:51:33;13.80;99.90
59556;DHT22;45374;52.746;6.304;2022-07-29T04:53:59;13.90;99.90
59556;DHT22;45374;52.746;6.304;2022-07-29T04:56:24;13.80;99.90
59556;DHT22;45374;52.746;6.304;2022-07-29T04:58:53;13.80;99.90
59556;DHT22;45374;52.746;6.304;2022-07-29T05:01:19;13.80;99.90
59556;DHT22;45374;52.746;6.304;2022-07-29T05:03:45;13.80;99.90
59556;DHT22;45374;52.746;6.304;2022-07-29T05:06:11;13.90;99.90
59556;DHT22;45374;52.746;6.304;2022-07-29T05:08:36;14.00;99.90
59556;DHT22;45374;52.746;6.304;2022-07-29T05:11:03;14.00;99.90
59556;DHT22;45374;52.746;6.304;2022-07-29T05:13:29;14.00;99.90
59556;DHT22;45374;52.746;6.304;2022-07-29T05:15:54;14.10;99.90
59556;DHT22;45374;52.746;6.304;2022-07-29T05:18:20;14.10;99.90
59556;DHT22;45374;52.746;6.304;2022-07-29T05:20:46;14.10;99.90
59556;DHT22;45374;52.746;6.304;2022-07-29T05:23:11;14.20;99.90
59556;DHT22;45374;52.746;6.304;2022-07-29T05:25:40;14.20;99.90
59556;DHT22;45374;52.746;6.304;2022-07-29T05:28:05;14.20;99.90
59556;DHT22;45374;52.746;6.304;2022-07-29T05:30:31;14.30;99.90
59556;DHT22;45374;52.746;6.304;2022-07-29T05:32:56;14.30;99.90
59556;DHT22;45374;52.746;6.304;2022-07-29T05:35:22;14.40;99.90
59556;DHT22;45374;52.746;6.304;2022-07-29T05:37:48;14.40;99.90
59556;DHT22;45374;52.746;6.304;2022-07-29T05:40:13;14.50;99.90
59556;DHT22;45374;52.746;6.304;2022-07-29T05:42:39;14.50;99.90
59556;DHT22;45374;52.746;6.304;2022-07-29T05:45:05;14.60;99.90
59556;DHT22;45374;52.746;6.304;2022-07-29T05:47:31;14.70;99.90
59556;DHT22;45374;52.746;6.304;2022-07-29T05:49:56;14.70;99.90
59556;DHT22;45374;52.746;6.304;2022-07-29T05:52:22;14.80;99.90
59556;DHT22;45374;52.746;6.304;2022-07-29T05:54:48;14.80;99.90
59556;DHT22;45374;52.746;6.304;2022-07-29T05:57:22;14.90;99.90
59556;DHT22;45374;52.746;6.304;2022-07-29T05:59:49;14.90;99.90
59556;DHT22;45374;52.746;6.304;2022-07-29T06:02:15;15.00;99.90
59556;DHT22;45374;52.746;6.304;2022-07-29T06:04:41;15.00;99.90
59556;DHT22;45374;52.746;6.304;2022-07-29T06:07:07;15.10;99.90
59556;DHT22;45374;52.746;6.304;2022-07-29T06:09:33;15.10;99.90
59556;DHT22;45374;52.746;6.304;2022-07-29T06:11:59;15.10;99.90
59556;DHT22;45374;52.746;6.304;2022-07-29T06:14:25;15.20;99.90
59556;DHT22;45374;52.746;6.304;2022-07-29T06:16:51;15.20;99.90
59556;DHT22;45374;52.746;6.304;2022-07-29T06:19:18;15.10;99.90
59556;DHT22;45374;52.746;6.304;2022-07-29T06:21:45;15.10;99.90
59556;DHT22;45374;52.746;6.304;2022-07-29T06:24:12;15.20;99.90
59556;DHT22;45374;52.746;6.304;2022-07-29T06:26:38;15.10;99.90
59556;DHT22;45374;52.746;6.304;2022-07-29T06:29:05;15.20;99.90
59556;DHT22;45374;52.746;6.304;2022-07-29T06:31:30;15.10;99.90
59556;DHT22;45374;52.746;6.304;2022-07-29T06:33:56;15.20;99.90
59556;DHT22;45374;52.746;6.304;2022-07-29T06:36:22;15.10;99.90
59556;DHT22;45374;52.746;6.304;2022-07-29T06:38:47;15.20;99.90
59556;DHT22;45374;52.746;6.304;2022-07-29T06:41:13;15.10;99.90
59556;DHT22;45374;52.746;6.304;2022-07-29T06:43:42;15.20;99.90
59556;DHT22;45374;52.746;6.304;2022-07-29T06:46:13;15.10;99.90
59556;DHT22;45374;52.746;6.304;2022-07-29T06:48:40;15.20;99.90
59556;DHT22;45374;52.746;6.304;2022-07-29T06:51:07;15.20;99.90
59556;DHT22;45374;52.746;6.304;2022-07-29T06:53:33;15.10;99.90
59556;DHT22;45374;52.746;6.304;2022-07-29T06:56:00;15.20;99.90
59556;DHT22;45374;52.746;6.304;2022-07-29T06:58:27;15.20;99.90
59556;DHT22;45374;52.746;6.304;2022-07-29T07:00:53;15.10;99.90
59556;DHT22;45374;52.746;6.304;2022-07-29T07:03:19;15.10;99.90
59556;DHT22;45374;52.746;6.304;2022-07-29T07:05:45;15.10;99.90
59556;DHT22;45374;52.746;6.304;2022-07-29T07:08:12;15.20;99.90
59556;DHT22;45374;52.746;6.304;2022-07-29T07:10:40;15.20;99.90
59556;DHT22;45374;52.746;6.304;2022-07-29T07:13:06;15.30;99.90
59556;DHT22;45374;52.746;6.304;2022-07-29T07:15:31;15.30;99.90
59556;DHT22;45374;52.746;6.304;2022-07-29T07:17:57;15.40;99.90
59556;DHT22;45374;52.746;6.304;2022-07-29T07:20:24;15.40;99.90
59556;DHT22;45374;52.746;6.304;2022-07-29T07:22:49;15.50;99.90
59556;DHT22;45374;52.746;6.304;2022-07-29T07:25:15;15.50;99.90
59556;DHT22;45374;52.746;6.304;2022-07-29T07:27:43;15.60;99.90
59556;DHT22;45374;52.746;6.304;2022-07-29T07:30:34;15.60;99.90
59556;DHT22;45374;52.746;6.304;2022-07-29T07:32:59;15.70;99.90
59556;DHT22;45374;52.746;6.304;2022-07-29T07:35:25;15.80;99.90
59556;DHT22;45374;52.746;6.304;2022-07-29T07:37:53;15.80;99.90
59556;DHT22;45374;52.746;6.304;2022-07-29T07:40:19;15.80;99.90
59556;DHT22;45374;52.746;6.304;2022-07-29T07:42:44;15.80;99.90
59556;DHT22;45374;52.746;6.304;2022-07-29T07:45:11;15.80;99.90
59556;DHT22;45374;52.746;6.304;2022-07-29T07:47:37;15.80;99.90
59556;DHT22;45374;52.746;6.304;2022-07-29T07:50:05;15.90;99.90
59556;DHT22;45374;52.746;6.304;2022-07-29T07:52:33;15.90;99.90
59556;DHT22;45374;52.746;6.304;2022-07-29T07:54:59;15.90;99.90
59556;DHT22;45374;52.746;6.304;2022-07-29T07:57:25;16.00;99.90
59556;DHT22;45374;52.746;6.304;2022-07-29T07:59:51;16.00;99.90
59556;DHT22;45374;52.746;6.304;2022-07-29T08:02:16;16.00;99.90
59556;DHT22;45374;52.746;6.304;2022-07-29T08:04:42;16.00;99.90
59556;DHT22;45374;52.746;6.304;2022-07-29T08:07:08;16.00;99.90
59556;DHT22;45374;52.746;6.304;2022-07-29T08:09:34;16.00;99.90
59556;DHT22;45374;52.746;6.304;2022-07-29T08:12:01;16.00;99.90
59556;DHT22;45374;52.746;6.304;2022-07-29T08:14:31;16.00;99.90
59556;DHT22;45374;52.746;6.304;2022-07-29T08:16:57;16.00;99.90
59556;DHT22;45374;52.746;6.304;2022-07-29T08:19:22;16.10;99.90
59556;DHT22;45374;52.746;6.304;2022-07-29T08:21:48;16.10;99.90
59556;DHT22;45374;52.746;6.304;2022-07-29T08:24:14;16.20;99.90
59556;DHT22;45374;52.746;6.304;2022-07-29T08:26:59;16.20;99.90
59556;DHT22;45374;52.746;6.304;2022-07-29T08:29:24;16.30;99.90
59556;DHT22;45374;52.746;6.304;2022-07-29T08:31:50;16.40;99.90
59556;DHT22;45374;52.746;6.304;2022-07-29T08:34:15;16.50;99.90
59556;DHT22;45374;52.746;6.304;2022-07-29T08:36:41;16.50;99.90
59556;DHT22;45374;52.746;6.304;2022-07-29T08:39:07;16.60;99.90
59556;DHT22;45374;52.746;6.304;2022-07-29T08:41:33;16.70;99.90
59556;DHT22;45374;52.746;6.304;2022-07-29T08:43:59;16.80;99.90
59556;DHT22;45374;52.746;6.304;2022-07-29T08:46:25;16.80;99.90
59556;DHT22;45374;52.746;6.304;2022-07-29T08:48:51;16.90;99.90
59556;DHT22;45374;52.746;6.304;2022-07-29T08:51:19;17.00;99.90
59556;DHT22;45374;52.746;6.304;2022-07-29T08:53:48;17.00;99.90
59556;DHT22;45374;52.746;6.304;2022-07-29T08:56:15;17.10;99.90
59556;DHT22;45374;52.746;6.304;2022-07-29T08:58:42;17.10;99.90
59556;DHT22;45374;52.746;6.304;2022-07-29T09:01:08;17.10;99.90
59556;DHT22;45374;52.746;6.304;2022-07-29T09:03:38;17.20;99.90
59556;DHT22;45374;52.746;6.304;2022-07-29T09:06:05;17.20;99.90
59556;DHT22;45374;52.746;6.304;2022-07-29T09:08:32;17.30;99.90
59556;DHT22;45374;52.746;6.304;2022-07-29T09:10:58;17.30;99.90
59556;DHT22;45374;52.746;6.304;2022-07-29T09:13:26;17.40;99.90
59556;DHT22;45374;52.746;6.304;2022-07-29T09:15:52;17.50;99.90
59556;DHT22;45374;52.746;6.304;2022-07-29T09:18:34;17.50;99.90
59556;DHT22;45374;52.746;6.304;2022-07-29T09:21:02;17.50;99.90
59556;DHT22;45374;52.746;6.304;2022-07-29T09:24:06;17.60;99.90
59556;DHT22;45374;52.746;6.304;2022-07-29T09:26:36;17.70;99.90
59556;DHT22;45374;52.746;6.304;2022-07-29T09:31:47;18.00;99.90
59556;DHT22;45374;52.746;6.304;2022-07-29T09:34:15;17.90;99.90
59556;DHT22;45374;52.746;6.304;2022-07-29T09:36:46;18.00;99.90
59556;DHT22;45374;52.746;6.304;2022-07-29T09:39:13;18.10;99.90
59556;DHT22;45374;52.746;6.304;2022-07-29T09:41:51;18.10;99.90
59556;DHT22;45374;52.746;6.304;2022-07-29T09:44:20;18.30;99.90
59556;DHT22;45374;52.746;6.304;2022-07-29T09:46:59;18.40;99.90
59556;DHT22;45374;52.746;6.304;2022-07-29T09:49:27;18.50;99.90
59556;DHT22;45374;52.746;6.304;2022-07-29T09:52:07;18.60;99.90
59556;DHT22;45374;52.746;6.304;2022-07-29T09:54:34;18.70;99.90
59556;DHT22;45374;52.746;6.304;2022-07-29T09:57:03;18.80;99.90
59556;DHT22;45374;52.746;6.304;2022-07-29T09:59:29;18.80;99.90
59556;DHT22;45374;52.746;6.304;2022-07-29T10:01:55;18.80;99.90
59556;DHT22;45374;52.746;6.304;2022-07-29T10:04:21;18.90;99.90
59556;DHT22;45374;52.746;6.304;2022-07-29T10:07:01;18.90;99.90
59556;DHT22;45374;52.746;6.304;2022-07-29T10:09:27;19.00;99.90
59556;DHT22;45374;52.746;6.304;2022-07-29T10:12:10;19.10;99.90
59556;DHT22;45374;52.746;6.304;2022-07-29T10:14:40;19.30;99.90
59556;DHT22;45374;52.746;6.304;2022-07-29T10:17:07;19.40;99.90
59556;DHT22;45374;52.746;6.304;2022-07-29T10:19:34;19.50;99.90
59556;DHT22;45374;52.746;6.304;2022-07-29T10:22:03;19.80;99.90
59556;DHT22;45374;52.746;6.304;2022-07-29T10:24:30;19.90;99.90
59556;DHT22;45374;52.746;6.304;2022-07-29T10:26:58;20.00;99.90
59556;DHT22;45374;52.746;6.304;2022-07-29T10:29:24;20.10;99.90
59556;DHT22;45374;52.746;6.304;2022-07-29T10:37:20;20.00;99.90
59556;DHT22;45374;52.746;6.304;2022-07-29T10:43:14;20.40;99.90
59556;DHT22;45374;52.746;6.304;2022-07-29T10:45:44;20.40;99.90
59556;DHT22;45374;52.746;6.304;2022-07-29T10:48:10;20.40;99.90
59556;DHT22;45374;52.746;6.304;2022-07-29T10:53:24;20.30;99.90
59556;DHT22;45374;52.746;6.304;2022-07-29T10:55:51;20.40;99.90
59556;DHT22;45374;52.746;6.304;2022-07-29T10:58:22;20.30;99.90
59556;DHT22;45374;52.746;6.304;2022-07-29T11:00:51;20.30;99.90
59556;DHT22;45374;52.746;6.304;2022-07-29T11:03:48;20.20;99.90
59556;DHT22;45374;52.746;6.304;2022-07-29T11:06:17;20.20;99.90
59556;DHT22;45374;52.746;6.304;2022-07-29T11:08:43;20.20;99.90
59556;DHT22;45374;52.746;6.304;2022-07-29T11:20:47;20.40;99.90
59556;DHT22;45374;52.746;6.304;2022-07-29T11:25:42;20.50;99.90
59556;DHT22;45374;52.746;6.304;2022-07-29T11:28:18;20.60;99.90
59556;DHT22;45374;52.746;6.304;2022-07-29T11:30:52;20.70;99.90
59556;DHT22;45374;52.746;6.304;2022-07-29T11:33:32;20.80;99.90
59556;DHT22;45374;52.746;6.304;2022-07-29T11:36:16;21.00;99.90
59556;DHT22;45374;52.746;6.304;2022-07-29T11:38:41;21.20;99.90
59556;DHT22;45374;52.746;6.304;2022-07-29T11:47:33;21.10;99.90
59556;DHT22;45374;52.746;6.304;2022-07-29T11:50:01;21.10;99.90
59556;DHT22;45374;52.746;6.304;2022-07-29T11:52:46;21.30;99.90
59556;DHT22;45374;52.746;6.304;2022-07-29T11:55:17;21.40;99.90
59556;DHT22;45374;52.746;6.304;2022-07-29T11:57:55;21.50;99.90
59556;DHT22;45374;52.746;6.304;2022-07-29T12:03:42;21.80;99.90
59556;DHT22;45374;52.746;6.304;2022-07-29T12:06:12;21.90;99.90
59556;DHT22;45374;52.746;6.304;2022-07-29T12:08:40;22.10;99.90
59556;DHT22;45374;52.746;6.304;2022-07-29T12:11:18;22.20;99.90
59556;DHT22;45374;52.746;6.304;2022-07-29T12:13:44;22.30;99.90
59556;DHT22;45374;52.746;6.304;2022-07-29T12:16:09;22.40;99.90
59556;DHT22;45374;52.746;6.304;2022-07-29T12:18:35;22.50;99.90
59556;DHT22;45374;52.746;6.304;2022-07-29T12:21:01;22.60;99.90
59556;DHT22;45374;52.746;6.304;2022-07-29T12:23:33;22.60;99.90
59556;DHT22;45374;52.746;6.304;2022-07-29T12:25:59;22.70;99.90
59556;DHT22;45374;52.746;6.304;2022-07-29T12:28:25;22.80;99.90
59556;DHT22;45374;52.746;6.304;2022-07-29T12:30:51;22.90;99.90
59556;DHT22;45374;52.746;6.304;2022-07-29T12:33:25;22.90;99.90
59556;DHT22;45374;52.746;6.304;2022-07-29T12:36:00;23.10;99.90
59556;DHT22;45374;52.746;6.304;2022-07-29T12:38:27;23.20;99.90
59556;DHT22;45374;52.746;6.304;2022-07-29T12:40:53;23.10;99.90
59556;DHT22;45374;52.746;6.304;2022-07-29T12:43:24;23.10;99.90
59556;DHT22;45374;52.746;6.304;2022-07-29T12:45:54;23.00;99.90
59556;DHT22;45374;52.746;6.304;2022-07-29T12:48:36;22.80;99.90
59556;DHT22;45374;52.746;6.304;2022-07-29T12:51:04;22.70;99.90
59556;DHT22;45374;52.746;6.304;2022-07-29T12:53:30;22.60;99.90
59556;DHT22;45374;52.746;6.304;2022-07-29T12:55:57;22.60;99.90
59556;DHT22;45374;52.746;6.304;2022-07-29T12:58:34;22.60;99.90
59556;DHT22;45374;52.746;6.304;2022-07-29T13:01:17;22.60;99.90
59556;DHT22;45374;52.746;6.304;2022-07-29T13:09:06;22.80;99.90
59556;DHT22;45374;52.746;6.304;2022-07-29T13:11:41;22.90;99.90
59556;DHT22;45374;52.746;6.304;2022-07-29T13:14:11;23.00;99.90
59556;DHT22;45374;52.746;6.304;2022-07-29T13:17:02;23.00;99.90
59556;DHT22;45374;52.746;6.304;2022-07-29T13:19:38;23.10;99.90
59556;DHT22;45374;52.746;6.304;2022-07-29T13:22:06;23.00;99.90
59556;DHT22;45374;52.746;6.304;2022-07-29T13:24:32;23.00;99.90
59556;DHT22;45374;52.746;6.304;2022-07-29T13:26:58;23.00;99.90
59556;DHT22;45374;52.746;6.304;2022-07-29T13:29:23;22.90;99.90
59556;DHT22;45374;52.746;6.304;2022-07-29T13:31:49;23.00;99.90
59556;DHT22;45374;52.746;6.304;2022-07-29T13:34:14;23.00;99.90
59556;DHT22;45374;52.746;6.304;2022-07-29T13:36:40;23.10;99.90
59556;DHT22;45374;52.746;6.304;2022-07-29T13:39:05;23.20;99.90
59556;DHT22;45374;52.746;6.304;2022-07-29T13:41:31;23.20;99.90
59556;DHT22;45374;52.746;6.304;2022-07-29T13:43:57;23.20;99.90
59556;DHT22;45374;52.746;6.304;2022-07-29T13:46:22;23.20;99.90
59556;DHT22;45374;52.746;6.304;2022-07-29T13:48:48;23.40;99.90
59556;DHT22;45374;52.746;6.304;2022-07-29T13:51:13;23.40;99.90
59556;DHT22;45374;52.746;6.304;2022-07-29T13:53:39;23.40;99.90
59556;DHT22;45374;52.746;6.304;2022-07-29T13:56:05;23.40;99.90
59556;DHT22;45374;52.746;6.304;2022-07-29T13:58:32;23.40;99.90
59556;DHT22;45374;52.746;6.304;2022-07-29T14:00:58;23.40;99.90
59556;DHT22;45374;52.746;6.304;2022-07-29T14:03:24;23.40;99.90
59556;DHT22;45374;52.746;6.304;2022-07-29T14:05:50;23.40;99.90
59556;DHT22;45374;52.746;6.304;2022-07-29T14:08:16;23.40;99.90
59556;DHT22;45374;52.746;6.304;2022-07-29T14:10:41;23.40;99.90
59556;DHT22;45374;52.746;6.304;2022-07-29T14:13:07;23.50;99.90
59556;DHT22;45374;52.746;6.304;2022-07-29T14:15:32;23.60;99.90
59556;DHT22;45374;52.746;6.304;2022-07-29T14:17:58;23.60;99.90
59556;DHT22;45374;52.746;6.304;2022-07-29T14:20:38;23.60;99.90
59556;DHT22;45374;52.746;6.304;2022-07-29T14:23:04;23.70;99.90
59556;DHT22;45374;52.746;6.304;2022-07-29T14:25:29;23.70;99.90
59556;DHT22;45374;52.746;6.304;2022-07-29T14:27:55;23.80;99.90
59556;DHT22;45374;52.746;6.304;2022-07-29T14:30:20;23.80;99.90
59556;DHT22;45374;52.746;6.304;2022-07-29T14:32:46;23.80;99.90
59556;DHT22;45374;52.746;6.304;2022-07-29T14:35:12;23.90;99.90
59556;DHT22;45374;52.746;6.304;2022-07-29T14:37:38;23.90;99.90
59556;DHT22;45374;52.746;6.304;2022-07-29T14:40:04;24.00;99.90
59556;DHT22;45374;52.746;6.304;2022-07-29T14:42:30;24.00;99.90
59556;DHT22;45374;52.746;6.304;2022-07-29T14:44:59;24.00;99.90
59556;DHT22;45374;52.746;6.304;2022-07-29T14:47:24;24.00;99.90
59556;DHT22;45374;52.746;6.304;2022-07-29T14:49:50;24.00;99.90
59556;DHT22;45374;52.746;6.304;2022-07-29T14:52:15;23.90;99.90
59556;DHT22;45374;52.746;6.304;2022-07-29T14:54:41;24.00;99.90
59556;DHT22;45374;52.746;6.304;2022-07-29T14:57:07;24.00;99.90
59556;DHT22;45374;52.746;6.304;2022-07-29T14:59:32;24.00;99.70
59556;DHT22;45374;52.746;6.304;2022-07-29T15:01:58;24.00;99.90
59556;DHT22;45374;52.746;6.304;2022-07-29T15:04:24;24.00;99.90
59556;DHT22;45374;52.746;6.304;2022-07-29T15:06:49;24.00;99.90
59556;DHT22;45374;52.746;6.304;2022-07-29T15:09:15;24.00;99.90
59556;DHT22;45374;52.746;6.304;2022-07-29T15:11:41;24.00;99.60
59556;DHT22;45374;52.746;6.304;2022-07-29T15:14:07;24.00;99.90
59556;DHT22;45374;52.746;6.304;2022-07-29T15:16:38;24.00;99.40
59556;DHT22;45374;52.746;6.304;2022-07-29T15:19:05;23.90;97.40
59556;DHT22;45374;52.746;6.304;2022-07-29T15:21:31;23.90;98.60
59556;DHT22;45374;52.746;6.304;2022-07-29T15:23:57;23.90;98.50
59556;DHT22;45374;52.746;6.304;2022-07-29T15:26:23;23.90;98.00
59556;DHT22;45374;52.746;6.304;2022-07-29T15:28:48;23.90;98.90
59556;DHT22;45374;52.746;6.304;2022-07-29T15:31:14;24.00;99.20
59556;DHT22;45374;52.746;6.304;2022-07-29T15:33:40;24.00;99.50
59556;DHT22;45374;52.746;6.304;2022-07-29T15:36:05;24.00;99.80
59556;DHT22;45374;52.746;6.304;2022-07-29T15:38:31;24.10;99.70
59556;DHT22;45374;52.746;6.304;2022-07-29T15:40:57;24.10;99.30
59556;DHT22;45374;52.746;6.304;2022-07-29T15:43:23;24.10;99.50
59556;DHT22;45374;52.746;6.304;2022-07-29T15:45:49;24.10;97.60
59556;DHT22;45374;52.746;6.304;2022-07-29T15:48:33;24.10;98.60
59556;DHT22;45374;52.746;6.304;2022-07-29T15:51:02;24.10;99.60
59556;DHT22;45374;52.746;6.304;2022-07-29T15:53:28;24.10;99.40
59556;DHT22;45374;52.746;6.304;2022-07-29T15:55:54;24.10;99.90
59556;DHT22;45374;52.746;6.304;2022-07-29T15:58:19;24.20;99.20
59556;DHT22;45374;52.746;6.304;2022-07-29T16:00:45;24.20;99.20
59556;DHT22;45374;52.746;6.304;2022-07-29T16:03:10;24.30;99.20
59556;DHT22;45374;52.746;6.304;2022-07-29T16:05:36;24.40;98.30
59556;DHT22;45374;52.746;6.304;2022-07-29T16:08:02;24.50;98.10
59556;DHT22;45374;52.746;6.304;2022-07-29T16:10:27;24.50;98.30
59556;DHT22;45374;52.746;6.304;2022-07-29T16:12:53;24.50;97.40
59556;DHT22;45374;52.746;6.304;2022-07-29T16:15:22;24.60;97.80
59556;DHT22;45374;52.746;6.304;2022-07-29T16:17:47;24.70;98.60
59556;DHT22;45374;52.746;6.304;2022-07-29T16:20:15;24.70;99.60
59556;DHT22;45374;52.746;6.304;2022-07-29T16:22:41;24.70;99.30
59556;DHT22;45374;52.746;6.304;2022-07-29T16:25:07;24.70;97.00
59556;DHT22;45374;52.746;6.304;2022-07-29T16:27:33;24.70;95.50
59556;DHT22;45374;52.746;6.304;2022-07-29T16:29:59;24.60;95.10